To NAV CANADA Home Page Login to a new session Search on AWWS site Feedback and Comments Disclaimer Vers la page française équivalente Tips FAQ What's new on the site To the Forecasts and Observations / NOTAM section To "File a Flight Plan" website Publications and other links Update of the User's profile FIC Telephone Numbers My Weather Data Folder Route Weather Data Regional Weather Data Local Weather Data To the Forecasts and Observations / NOTAM section
Request Generated 05/03/2015 at 18:54:33 UTC . Weather information available at that time is displayed.

METAR/TAF

If you find any discrepancies between the coded METAR/TAF and the plain language METAR/TAF please use the coded METAR/TAF. LWIS bulletins are not decoded in plain language.

VANCOUVER/VANCOUVER INTL/BC    

METAR CYVR 031800Z 28008KT 30SM FEW050 14/08 A3003 RMK CF1 CF TR SLP170=
METAR
LOCATION
CYVR - VANCOUVER/VANCOUVER INTL/BC
DATE - TIME
03 MAY 2015 - 1800 UTC
WIND
280 TRUE @ 8  KNOTS
VISIBILITY
30 STAT.  MILES
RUNWAY VISUAL RANGE
WEATHER
CLOUDINESS
FEW CLOUDS (1/8 - 2/8) 5000  FT
TEMP / DEWPOINT
14 C / 8 C
ALTIMETER
30.03 IN HG
RECENT WEATHER
WIND SHEAR

METAR CYVR 031700Z 26003KT 210V290 30SM SKC 13/07 A3003 RMK SLP169=
METAR
LOCATION
CYVR - VANCOUVER/VANCOUVER INTL/BC
DATE - TIME
03 MAY 2015 - 1700 UTC
WIND
260 TRUE @ 3  KNOTS
VARIATION
210 <-> 290  DEG
VISIBILITY
30 STAT.  MILES
RUNWAY VISUAL RANGE
WEATHER
CLOUDINESS
CLEAR SKY
TEMP / DEWPOINT
13 C / 7 C
ALTIMETER
30.03 IN HG
RECENT WEATHER
WIND SHEAR

METAR CYVR 031600Z VRB02KT 30SM SKC 12/07 A3003 RMK SLP169=
METAR
LOCATION
CYVR - VANCOUVER/VANCOUVER INTL/BC
DATE - TIME
03 MAY 2015 - 1600 UTC
WIND
VRB @ 2  KNOTS
VISIBILITY
30 STAT.  MILES
RUNWAY VISUAL RANGE
WEATHER
CLOUDINESS
CLEAR SKY
TEMP / DEWPOINT
12 C / 7 C
ALTIMETER
30.03 IN HG
RECENT WEATHER
WIND SHEAR

TAF CYVR 031738Z 0318/0424 28008KT P6SM SKC BECMG 0406/0408 09006KT FM041200 10012KT P6SM FEW050 BKN120 FM042100 18008KT P6SM BKN050 BKN100 RMK NXT FCST BY 032100Z=
TAF
LOCATION

CYVR - VANCOUVER/VANCOUVER INTL/BC
VALIDITY [UTC]
03 MAY - 1738 to
05 MAY - 0000
 
TIMES
[UTC]
WIND
[DEGREES TRUE]
VISIBILITY
[STAT. MILES]
WEATHER
CLOUDINESS
[FEET AGL]
 
03 MAY - 1800 to
04 MAY - 1200
280 @ 8 KNOTS
6+
NIL
CLEAR SKY
BECOMING
04 MAY - 0600 to
04 MAY - 0800
90 @ 6 KNOTS
 
 
 
 
04 MAY - 1200 to
04 MAY - 2100
100 @ 12 KNOTS
6+
NIL
5000 FEW
12000 BROKEN
 
04 MAY - 2100 to
05 MAY - 0000
180 @ 8 KNOTS
6+
NIL
5000 BROKEN
10000 BROKEN
REMARKS
THE NEXT FORECAST WILL BE ISSUED BY 2100 UTC ON DAY 03


Your time UTC time
Weather data provided by Environment Canada and NAV CANADA